sensor_id;sensor_type;location;lat;lon;timestamp;P1;durP1;ratioP1;P2;durP2;ratioP2
73120;SDS011;61307;49.628;-1.624;2023-09-18T00:00:48;3.33;;;1.88;;
73120;SDS011;61307;49.628;-1.624;2023-09-18T00:03:16;4.65;;;2.00;;
73120;SDS011;61307;49.628;-1.624;2023-09-18T00:05:44;8.43;;;2.40;;
73120;SDS011;61307;49.628;-1.624;2023-09-18T00:08:13;4.82;;;1.83;;
73120;SDS011;61307;49.628;-1.624;2023-09-18T00:10:40;3.60;;;1.70;;
73120;SDS011;61307;49.628;-1.624;2023-09-18T00:13:08;4.25;;;1.77;;
73120;SDS011;61307;49.628;-1.624;2023-09-18T00:15:36;4.25;;;2.00;;
73120;SDS011;61307;49.628;-1.624;2023-09-18T00:18:05;2.90;;;1.88;;
73120;SDS011;61307;49.628;-1.624;2023-09-18T00:20:33;4.07;;;1.60;;
73120;SDS011;61307;49.628;-1.624;2023-09-18T00:23:00;3.60;;;1.65;;
73120;SDS011;61307;49.628;-1.624;2023-09-18T00:28:22;5.45;;;2.20;;
73120;SDS011;61307;49.628;-1.624;2023-09-18T00:30:49;3.75;;;1.80;;
73120;SDS011;61307;49.628;-1.624;2023-09-18T00:33:18;7.53;;;1.92;;
73120;SDS011;61307;49.628;-1.624;2023-09-18T00:35:46;4.13;;;1.92;;
73120;SDS011;61307;49.628;-1.624;2023-09-18T00:38:14;4.65;;;1.60;;
73120;SDS011;61307;49.628;-1.624;2023-09-18T00:40:42;3.95;;;1.90;;
73120;SDS011;61307;49.628;-1.624;2023-09-18T00:43:09;5.03;;;1.60;;
73120;SDS011;61307;49.628;-1.624;2023-09-18T00:45:38;4.60;;;1.80;;
73120;SDS011;61307;49.628;-1.624;2023-09-18T00:48:08;3.60;;;1.88;;
73120;SDS011;61307;49.628;-1.624;2023-09-18T00:50:37;3.58;;;1.80;;
73120;SDS011;61307;49.628;-1.624;2023-09-18T00:53:05;3.42;;;1.58;;
73120;SDS011;61307;49.628;-1.624;2023-09-18T00:55:35;4.28;;;1.80;;
73120;SDS011;61307;49.628;-1.624;2023-09-18T00:58:04;5.60;;;1.80;;
73120;SDS011;61307;49.628;-1.624;2023-09-18T01:00:31;5.55;;;1.60;;
73120;SDS011;61307;49.628;-1.624;2023-09-18T01:02:59;4.07;;;2.47;;
73120;SDS011;61307;49.628;-1.624;2023-09-18T01:05:31;4.15;;;1.75;;
73120;SDS011;61307;49.628;-1.624;2023-09-18T01:08:01;6.63;;;1.95;;
73120;SDS011;61307;49.628;-1.624;2023-09-18T01:10:32;4.28;;;1.90;;
73120;SDS011;61307;49.628;-1.624;2023-09-18T01:13:07;3.90;;;1.90;;
73120;SDS011;61307;49.628;-1.624;2023-09-18T01:15:39;5.05;;;1.65;;
73120;SDS011;61307;49.628;-1.624;2023-09-18T01:18:29;4.40;;;1.63;;
73120;SDS011;61307;49.628;-1.624;2023-09-18T01:20:56;4.57;;;1.88;;
73120;SDS011;61307;49.628;-1.624;2023-09-18T01:23:25;2.85;;;1.35;;
73120;SDS011;61307;49.628;-1.624;2023-09-18T01:25:52;4.45;;;1.83;;
73120;SDS011;61307;49.628;-1.624;2023-09-18T01:28:19;3.25;;;1.60;;
73120;SDS011;61307;49.628;-1.624;2023-09-18T01:30:47;3.97;;;1.77;;
73120;SDS011;61307;49.628;-1.624;2023-09-18T01:33:14;4.25;;;2.05;;
73120;SDS011;61307;49.628;-1.624;2023-09-18T01:35:42;3.85;;;1.48;;
73120;SDS011;61307;49.628;-1.624;2023-09-18T01:38:11;4.80;;;1.60;;
73120;SDS011;61307;49.628;-1.624;2023-09-18T01:40:40;4.78;;;1.60;;
73120;SDS011;61307;49.628;-1.624;2023-09-18T01:43:09;4.18;;;1.58;;
73120;SDS011;61307;49.628;-1.624;2023-09-18T01:45:36;2.90;;;1.50;;
73120;SDS011;61307;49.628;-1.624;2023-09-18T01:50:42;4.43;;;1.60;;
73120;SDS011;61307;49.628;-1.624;2023-09-18T01:53:10;5.07;;;1.70;;
73120;SDS011;61307;49.628;-1.624;2023-09-18T01:55:37;3.42;;;1.70;;
73120;SDS011;61307;49.628;-1.624;2023-09-18T01:58:06;3.03;;;1.60;;
73120;SDS011;61307;49.628;-1.624;2023-09-18T02:00:34;2.92;;;1.58;;
73120;SDS011;61307;49.628;-1.624;2023-09-18T02:03:02;3.33;;;1.73;;
73120;SDS011;61307;49.628;-1.624;2023-09-18T02:05:30;4.07;;;1.40;;
73120;SDS011;61307;49.628;-1.624;2023-09-18T02:07:57;4.32;;;1.70;;
73120;SDS011;61307;49.628;-1.624;2023-09-18T02:10:25;4.03;;;1.83;;
73120;SDS011;61307;49.628;-1.624;2023-09-18T02:12:52;3.47;;;1.63;;
73120;SDS011;61307;49.628;-1.624;2023-09-18T02:15:21;3.50;;;1.73;;
73120;SDS011;61307;49.628;-1.624;2023-09-18T02:17:48;3.42;;;1.60;;
73120;SDS011;61307;49.628;-1.624;2023-09-18T02:20:16;2.83;;;1.48;;
73120;SDS011;61307;49.628;-1.624;2023-09-18T02:22:43;4.75;;;1.90;;
73120;SDS011;61307;49.628;-1.624;2023-09-18T02:25:14;5.65;;;1.83;;
73120;SDS011;61307;49.628;-1.624;2023-09-18T02:27:43;3.38;;;1.50;;
73120;SDS011;61307;49.628;-1.624;2023-09-18T02:30:11;5.25;;;1.65;;
73120;SDS011;61307;49.628;-1.624;2023-09-18T02:32:40;3.97;;;1.60;;
73120;SDS011;61307;49.628;-1.624;2023-09-18T02:35:08;3.75;;;2.00;;
73120;SDS011;61307;49.628;-1.624;2023-09-18T02:37:35;2.70;;;1.55;;
73120;SDS011;61307;49.628;-1.624;2023-09-18T02:40:03;2.17;;;1.50;;
73120;SDS011;61307;49.628;-1.624;2023-09-18T02:42:33;3.13;;;1.77;;
73120;SDS011;61307;49.628;-1.624;2023-09-18T02:45:00;2.65;;;1.40;;
73120;SDS011;61307;49.628;-1.624;2023-09-18T02:47:27;4.75;;;1.55;;
73120;SDS011;61307;49.628;-1.624;2023-09-18T02:49:56;3.67;;;1.40;;
73120;SDS011;61307;49.628;-1.624;2023-09-18T02:52:23;2.35;;;1.35;;
73120;SDS011;61307;49.628;-1.624;2023-09-18T02:54:51;4.22;;;1.60;;
73120;SDS011;61307;49.628;-1.624;2023-09-18T02:57:18;2.63;;;1.27;;
73120;SDS011;61307;49.628;-1.624;2023-09-18T02:59:57;4.82;;;1.60;;
73120;SDS011;61307;49.628;-1.624;2023-09-18T03:02:25;1.92;;;1.30;;
73120;SDS011;61307;49.628;-1.624;2023-09-18T03:04:53;2.53;;;1.30;;
73120;SDS011;61307;49.628;-1.624;2023-09-18T03:07:22;2.10;;;1.40;;
73120;SDS011;61307;49.628;-1.624;2023-09-18T03:09:49;2.88;;;1.65;;
73120;SDS011;61307;49.628;-1.624;2023-09-18T03:12:17;3.83;;;1.58;;
73120;SDS011;61307;49.628;-1.624;2023-09-18T03:14:45;3.47;;;1.65;;
73120;SDS011;61307;49.628;-1.624;2023-09-18T03:17:12;3.75;;;1.70;;
73120;SDS011;61307;49.628;-1.624;2023-09-18T03:19:40;3.05;;;1.60;;
73120;SDS011;61307;49.628;-1.624;2023-09-18T03:22:07;4.53;;;1.67;;
73120;SDS011;61307;49.628;-1.624;2023-09-18T03:24:35;4.55;;;1.60;;
73120;SDS011;61307;49.628;-1.624;2023-09-18T03:27:03;3.40;;;1.50;;
73120;SDS011;61307;49.628;-1.624;2023-09-18T03:32:25;3.92;;;2.22;;
73120;SDS011;61307;49.628;-1.624;2023-09-18T03:34:52;4.60;;;1.50;;
73120;SDS011;61307;49.628;-1.624;2023-09-18T03:37:20;3.78;;;1.20;;
73120;SDS011;61307;49.628;-1.624;2023-09-18T03:39:48;2.22;;;1.50;;
73120;SDS011;61307;49.628;-1.624;2023-09-18T03:42:15;4.03;;;1.73;;
73120;SDS011;61307;49.628;-1.624;2023-09-18T03:44:43;2.80;;;1.70;;
73120;SDS011;61307;49.628;-1.624;2023-09-18T03:47:10;1.83;;;1.30;;
73120;SDS011;61307;49.628;-1.624;2023-09-18T03:49:37;4.95;;;1.55;;
73120;SDS011;61307;49.628;-1.624;2023-09-18T03:52:05;4.38;;;1.55;;
73120;SDS011;61307;49.628;-1.624;2023-09-18T03:54:32;2.92;;;1.60;;
73120;SDS011;61307;49.628;-1.624;2023-09-18T03:57:01;4.00;;;1.58;;
73120;SDS011;61307;49.628;-1.624;2023-09-18T03:59:28;3.00;;;1.70;;
73120;SDS011;61307;49.628;-1.624;2023-09-18T04:01:55;2.67;;;1.38;;
73120;SDS011;61307;49.628;-1.624;2023-09-18T04:04:23;4.38;;;1.60;;
73120;SDS011;61307;49.628;-1.624;2023-09-18T04:06:50;2.90;;;1.52;;
73120;SDS011;61307;49.628;-1.624;2023-09-18T04:09:17;5.10;;;1.45;;
73120;SDS011;61307;49.628;-1.624;2023-09-18T04:11:47;4.28;;;1.95;;
73120;SDS011;61307;49.628;-1.624;2023-09-18T04:14:15;4.65;;;1.80;;
73120;SDS011;61307;49.628;-1.624;2023-09-18T04:16:43;5.00;;;2.08;;
73120;SDS011;61307;49.628;-1.624;2023-09-18T04:19:10;2.35;;;1.48;;
73120;SDS011;61307;49.628;-1.624;2023-09-18T04:21:38;2.25;;;1.23;;
73120;SDS011;61307;49.628;-1.624;2023-09-18T04:24:13;2.65;;;1.67;;
73120;SDS011;61307;49.628;-1.624;2023-09-18T04:30:08;2.15;;;1.40;;
73120;SDS011;61307;49.628;-1.624;2023-09-18T04:32:36;1.83;;;1.30;;
73120;SDS011;61307;49.628;-1.624;2023-09-18T04:35:04;3.40;;;1.50;;
73120;SDS011;61307;49.628;-1.624;2023-09-18T04:37:35;2.70;;;1.27;;
73120;SDS011;61307;49.628;-1.624;2023-09-18T04:40:04;2.97;;;1.65;;
73120;SDS011;61307;49.628;-1.624;2023-09-18T04:42:35;2.28;;;1.55;;
73120;SDS011;61307;49.628;-1.624;2023-09-18T04:45:03;4.45;;;1.77;;
73120;SDS011;61307;49.628;-1.624;2023-09-18T04:47:33;2.13;;;1.50;;
73120;SDS011;61307;49.628;-1.624;2023-09-18T04:50:01;1.83;;;1.42;;
73120;SDS011;61307;49.628;-1.624;2023-09-18T04:52:35;3.53;;;1.35;;
73120;SDS011;61307;49.628;-1.624;2023-09-18T04:55:02;2.88;;;1.58;;
73120;SDS011;61307;49.628;-1.624;2023-09-18T04:57:31;3.95;;;1.50;;
73120;SDS011;61307;49.628;-1.624;2023-09-18T04:59:59;2.72;;;1.30;;
73120;SDS011;61307;49.628;-1.624;2023-09-18T05:02:26;3.03;;;1.33;;
73120;SDS011;61307;49.628;-1.624;2023-09-18T05:04:57;2.58;;;1.77;;
73120;SDS011;61307;49.628;-1.624;2023-09-18T05:07:24;5.28;;;1.55;;
73120;SDS011;61307;49.628;-1.624;2023-09-18T05:09:51;2.40;;;1.30;;
73120;SDS011;61307;49.628;-1.624;2023-09-18T05:12:18;2.97;;;1.52;;
73120;SDS011;61307;49.628;-1.624;2023-09-18T05:14:47;3.30;;;1.30;;
73120;SDS011;61307;49.628;-1.624;2023-09-18T05:17:16;2.20;;;1.50;;
73120;SDS011;61307;49.628;-1.624;2023-09-18T05:19:44;3.20;;;1.67;;
73120;SDS011;61307;49.628;-1.624;2023-09-18T05:22:13;2.50;;;1.73;;
73120;SDS011;61307;49.628;-1.624;2023-09-18T05:24:40;2.25;;;1.52;;
73120;SDS011;61307;49.628;-1.624;2023-09-18T05:27:07;3.53;;;1.33;;
73120;SDS011;61307;49.628;-1.624;2023-09-18T05:29:35;1.95;;;1.30;;
73120;SDS011;61307;49.628;-1.624;2023-09-18T05:32:03;2.10;;;1.60;;
73120;SDS011;61307;49.628;-1.624;2023-09-18T05:34:30;3.17;;;1.70;;
73120;SDS011;61307;49.628;-1.624;2023-09-18T05:36:58;2.85;;;1.85;;
73120;SDS011;61307;49.628;-1.624;2023-09-18T05:39:27;2.53;;;1.73;;
73120;SDS011;61307;49.628;-1.624;2023-09-18T05:41:54;3.42;;;1.70;;
73120;SDS011;61307;49.628;-1.624;2023-09-18T05:47:49;1.90;;;1.50;;
73120;SDS011;61307;49.628;-1.624;2023-09-18T05:50:18;2.25;;;1.40;;
73120;SDS011;61307;49.628;-1.624;2023-09-18T05:52:47;4.65;;;1.42;;
73120;SDS011;61307;49.628;-1.624;2023-09-18T05:55:16;2.92;;;1.45;;
73120;SDS011;61307;49.628;-1.624;2023-09-18T05:57:43;2.92;;;1.55;;
73120;SDS011;61307;49.628;-1.624;2023-09-18T06:00:10;3.63;;;1.80;;
73120;SDS011;61307;49.628;-1.624;2023-09-18T06:02:39;2.92;;;1.60;;
73120;SDS011;61307;49.628;-1.624;2023-09-18T06:05:07;1.83;;;1.40;;
73120;SDS011;61307;49.628;-1.624;2023-09-18T06:07:36;2.58;;;1.45;;
73120;SDS011;61307;49.628;-1.624;2023-09-18T06:10:05;1.33;;;1.20;;
73120;SDS011;61307;49.628;-1.624;2023-09-18T06:12:37;1.77;;;1.25;;
73120;SDS011;61307;49.628;-1.624;2023-09-18T06:15:06;4.53;;;1.77;;
73120;SDS011;61307;49.628;-1.624;2023-09-18T06:17:35;2.97;;;1.98;;
73120;SDS011;61307;49.628;-1.624;2023-09-18T06:20:04;4.38;;;1.90;;
73120;SDS011;61307;49.628;-1.624;2023-09-18T06:22:36;1.55;;;1.40;;
73120;SDS011;61307;49.628;-1.624;2023-09-18T06:25:07;1.92;;;1.17;;
73120;SDS011;61307;49.628;-1.624;2023-09-18T06:27:39;2.53;;;1.50;;
73120;SDS011;61307;49.628;-1.624;2023-09-18T06:30:09;3.05;;;1.80;;
73120;SDS011;61307;49.628;-1.624;2023-09-18T06:32:40;3.17;;;1.50;;
73120;SDS011;61307;49.628;-1.624;2023-09-18T06:35:10;1.95;;;1.38;;
73120;SDS011;61307;49.628;-1.624;2023-09-18T06:37:48;3.78;;;1.60;;
73120;SDS011;61307;49.628;-1.624;2023-09-18T06:40:25;2.67;;;1.40;;
73120;SDS011;61307;49.628;-1.624;2023-09-18T06:43:04;2.05;;;1.60;;
73120;SDS011;61307;49.628;-1.624;2023-09-18T06:45:35;2.42;;;1.65;;
73120;SDS011;61307;49.628;-1.624;2023-09-18T06:48:15;3.25;;;1.60;;
73120;SDS011;61307;49.628;-1.624;2023-09-18T06:50:46;4.05;;;1.70;;
73120;SDS011;61307;49.628;-1.624;2023-09-18T06:53:18;2.00;;;1.52;;
73120;SDS011;61307;49.628;-1.624;2023-09-18T06:56:01;2.28;;;1.60;;
73120;SDS011;61307;49.628;-1.624;2023-09-18T06:58:37;2.92;;;1.65;;
73120;SDS011;61307;49.628;-1.624;2023-09-18T07:01:11;3.10;;;1.70;;
73120;SDS011;61307;49.628;-1.624;2023-09-18T07:03:46;3.17;;;1.48;;
73120;SDS011;61307;49.628;-1.624;2023-09-18T07:06:24;2.38;;;1.50;;
73120;SDS011;61307;49.628;-1.624;2023-09-18T07:08:55;3.45;;;1.80;;
73120;SDS011;61307;49.628;-1.624;2023-09-18T07:11:26;2.88;;;1.65;;
73120;SDS011;61307;49.628;-1.624;2023-09-18T07:13:58;3.53;;;1.70;;
73120;SDS011;61307;49.628;-1.624;2023-09-18T07:16:32;1.70;;;1.50;;
73120;SDS011;61307;49.628;-1.624;2023-09-18T07:19:03;2.47;;;1.45;;
73120;SDS011;61307;49.628;-1.624;2023-09-18T07:21:33;2.60;;;1.38;;
73120;SDS011;61307;49.628;-1.624;2023-09-18T07:24:04;2.53;;;1.40;;
73120;SDS011;61307;49.628;-1.624;2023-09-18T07:26:34;2.20;;;1.55;;
73120;SDS011;61307;49.628;-1.624;2023-09-18T07:29:06;3.55;;;1.70;;
73120;SDS011;61307;49.628;-1.624;2023-09-18T07:31:36;2.33;;;1.50;;
73120;SDS011;61307;49.628;-1.624;2023-09-18T07:34:06;2.45;;;1.40;;
73120;SDS011;61307;49.628;-1.624;2023-09-18T07:36:36;3.22;;;1.30;;
73120;SDS011;61307;49.628;-1.624;2023-09-18T07:39:06;4.25;;;1.77;;
73120;SDS011;61307;49.628;-1.624;2023-09-18T07:41:36;2.33;;;1.38;;
73120;SDS011;61307;49.628;-1.624;2023-09-18T07:44:07;2.40;;;1.75;;
73120;SDS011;61307;49.628;-1.624;2023-09-18T07:46:36;3.97;;;1.63;;
73120;SDS011;61307;49.628;-1.624;2023-09-18T07:49:05;2.60;;;1.67;;
73120;SDS011;61307;49.628;-1.624;2023-09-18T07:51:33;2.92;;;1.30;;
73120;SDS011;61307;49.628;-1.624;2023-09-18T07:54:02;3.25;;;1.63;;
73120;SDS011;61307;49.628;-1.624;2023-09-18T07:59:55;3.72;;;1.60;;
73120;SDS011;61307;49.628;-1.624;2023-09-18T08:02:23;4.22;;;1.80;;
73120;SDS011;61307;49.628;-1.624;2023-09-18T08:04:54;2.97;;;1.60;;
73120;SDS011;61307;49.628;-1.624;2023-09-18T08:07:21;6.25;;;1.60;;
73120;SDS011;61307;49.628;-1.624;2023-09-18T08:09:48;5.45;;;1.63;;
73120;SDS011;61307;49.628;-1.624;2023-09-18T08:12:16;5.10;;;1.75;;
73120;SDS011;61307;49.628;-1.624;2023-09-18T08:14:43;4.75;;;1.70;;
73120;SDS011;61307;49.628;-1.624;2023-09-18T08:17:13;3.72;;;1.55;;
73120;SDS011;61307;49.628;-1.624;2023-09-18T08:19:40;2.55;;;1.65;;
73120;SDS011;61307;49.628;-1.624;2023-09-18T08:22:10;2.83;;;1.80;;
73120;SDS011;61307;49.628;-1.624;2023-09-18T08:24:50;3.78;;;1.83;;
73120;SDS011;61307;49.628;-1.624;2023-09-18T08:30:18;2.88;;;1.77;;
73120;SDS011;61307;49.628;-1.624;2023-09-18T08:32:48;4.60;;;1.90;;
73120;SDS011;61307;49.628;-1.624;2023-09-18T08:35:26;4.60;;;1.73;;
73120;SDS011;61307;49.628;-1.624;2023-09-18T08:37:57;4.57;;;2.10;;
73120;SDS011;61307;49.628;-1.624;2023-09-18T10:41:34;4.85;;;2.00;;
73120;SDS011;61307;49.628;-1.624;2023-09-18T10:48:07;6.65;;;2.05;;
73120;SDS011;61307;49.628;-1.624;2023-09-18T12:16:02;2.63;;;1.60;;
73120;SDS011;61307;49.628;-1.624;2023-09-18T12:18:37;7.20;;;1.90;;
73120;SDS011;61307;49.628;-1.624;2023-09-18T12:21:24;8.68;;;2.28;;
73120;SDS011;61307;49.628;-1.624;2023-09-18T12:24:20;5.05;;;2.20;;
73120;SDS011;61307;49.628;-1.624;2023-09-18T12:43:33;7.80;;;2.03;;
73120;SDS011;61307;49.628;-1.624;2023-09-18T12:46:02;6.10;;;1.80;;
73120;SDS011;61307;49.628;-1.624;2023-09-18T12:48:32;5.50;;;2.05;;
73120;SDS011;61307;49.628;-1.624;2023-09-18T12:51:03;5.40;;;2.00;;
73120;SDS011;61307;49.628;-1.624;2023-09-18T12:53:31;7.57;;;2.20;;
73120;SDS011;61307;49.628;-1.624;2023-09-18T12:56:06;6.38;;;2.17;;
73120;SDS011;61307;49.628;-1.624;2023-09-18T12:58:36;7.45;;;2.03;;
73120;SDS011;61307;49.628;-1.624;2023-09-18T13:04:35;7.13;;;2.75;;
73120;SDS011;61307;49.628;-1.624;2023-09-18T13:06:42;6.35;;;2.10;;
73120;SDS011;61307;49.628;-1.624;2023-09-18T13:09:15;5.72;;;2.30;;
73120;SDS011;61307;49.628;-1.624;2023-09-18T13:11:52;7.55;;;2.35;;
73120;SDS011;61307;49.628;-1.624;2023-09-18T13:14:21;8.63;;;1.85;;
73120;SDS011;61307;49.628;-1.624;2023-09-18T13:16:48;6.07;;;1.95;;
73120;SDS011;61307;49.628;-1.624;2023-09-18T13:19:16;9.82;;;2.30;;
73120;SDS011;61307;49.628;-1.624;2023-09-18T13:21:47;9.05;;;2.45;;
73120;SDS011;61307;49.628;-1.624;2023-09-18T13:24:26;5.10;;;1.92;;
73120;SDS011;61307;49.628;-1.624;2023-09-18T13:26:54;8.98;;;2.78;;
73120;SDS011;61307;49.628;-1.624;2023-09-18T13:29:23;6.20;;;2.53;;
73120;SDS011;61307;49.628;-1.624;2023-09-18T13:31:50;7.03;;;1.95;;
73120;SDS011;61307;49.628;-1.624;2023-09-18T13:34:17;6.63;;;2.10;;
73120;SDS011;61307;49.628;-1.624;2023-09-18T13:36:44;10.80;;;2.78;;
73120;SDS011;61307;49.628;-1.624;2023-09-18T13:39:12;7.00;;;2.08;;
73120;SDS011;61307;49.628;-1.624;2023-09-18T13:41:42;8.15;;;2.10;;
73120;SDS011;61307;49.628;-1.624;2023-09-18T13:44:09;4.93;;;1.80;;
73120;SDS011;61307;49.628;-1.624;2023-09-18T13:46:38;9.88;;;1.77;;
73120;SDS011;61307;49.628;-1.624;2023-09-18T13:49:06;7.28;;;1.85;;
73120;SDS011;61307;49.628;-1.624;2023-09-18T13:51:33;5.00;;;1.88;;
73120;SDS011;61307;49.628;-1.624;2023-09-18T13:54:00;7.80;;;2.10;;
73120;SDS011;61307;49.628;-1.624;2023-09-18T13:56:29;6.43;;;2.22;;
73120;SDS011;61307;49.628;-1.624;2023-09-18T13:58:56;6.97;;;2.15;;
73120;SDS011;61307;49.628;-1.624;2023-09-18T14:01:23;8.10;;;1.85;;
73120;SDS011;61307;49.628;-1.624;2023-09-18T14:03:53;8.55;;;2.08;;
73120;SDS011;61307;49.628;-1.624;2023-09-18T14:06:20;10.60;;;2.33;;
73120;SDS011;61307;49.628;-1.624;2023-09-18T14:08:48;6.00;;;2.15;;
73120;SDS011;61307;49.628;-1.624;2023-09-18T14:11:15;8.68;;;2.67;;
73120;SDS011;61307;49.628;-1.624;2023-09-18T14:13:43;7.38;;;2.15;;
73120;SDS011;61307;49.628;-1.624;2023-09-18T14:16:10;3.88;;;1.70;;
73120;SDS011;61307;49.628;-1.624;2023-09-18T14:18:39;4.25;;;1.70;;
73120;SDS011;61307;49.628;-1.624;2023-09-18T14:21:09;9.63;;;2.08;;
73120;SDS011;61307;49.628;-1.624;2023-09-18T14:23:36;8.45;;;1.92;;
73120;SDS011;61307;49.628;-1.624;2023-09-18T14:26:03;9.75;;;2.17;;
73120;SDS011;61307;49.628;-1.624;2023-09-18T14:28:30;7.05;;;2.30;;
73120;SDS011;61307;49.628;-1.624;2023-09-18T14:30:57;9.48;;;2.13;;
73120;SDS011;61307;49.628;-1.624;2023-09-18T14:33:24;5.30;;;1.90;;
73120;SDS011;61307;49.628;-1.624;2023-09-18T14:35:52;7.28;;;2.20;;
73120;SDS011;61307;49.628;-1.624;2023-09-18T14:38:21;3.88;;;2.10;;
73120;SDS011;61307;49.628;-1.624;2023-09-18T14:40:47;7.35;;;1.77;;
73120;SDS011;61307;49.628;-1.624;2023-09-18T14:43:14;4.68;;;1.38;;
73120;SDS011;61307;49.628;-1.624;2023-09-18T14:45:42;4.07;;;1.50;;
73120;SDS011;61307;49.628;-1.624;2023-09-18T14:48:09;7.43;;;1.40;;
73120;SDS011;61307;49.628;-1.624;2023-09-18T14:50:36;3.97;;;1.48;;
73120;SDS011;61307;49.628;-1.624;2023-09-18T14:53:03;6.15;;;1.45;;
73120;SDS011;61307;49.628;-1.624;2023-09-18T14:55:33;3.97;;;1.63;;
73120;SDS011;61307;49.628;-1.624;2023-09-18T14:58:01;5.55;;;1.60;;
73120;SDS011;61307;49.628;-1.624;2023-09-18T15:00:28;4.70;;;1.52;;
73120;SDS011;61307;49.628;-1.624;2023-09-18T15:02:55;7.10;;;1.55;;
73120;SDS011;61307;49.628;-1.624;2023-09-18T15:05:32;7.30;;;1.75;;
73120;SDS011;61307;49.628;-1.624;2023-09-18T15:07:59;6.00;;;1.42;;
73120;SDS011;61307;49.628;-1.624;2023-09-18T15:10:26;4.68;;;1.30;;
73120;SDS011;61307;49.628;-1.624;2023-09-18T15:12:54;4.18;;;1.52;;
73120;SDS011;61307;49.628;-1.624;2023-09-18T15:15:21;3.35;;;1.27;;
73120;SDS011;61307;49.628;-1.624;2023-09-18T15:17:56;5.03;;;1.50;;
73120;SDS011;61307;49.628;-1.624;2023-09-18T15:20:23;3.72;;;1.42;;
73120;SDS011;61307;49.628;-1.624;2023-09-18T15:22:51;4.25;;;1.42;;
73120;SDS011;61307;49.628;-1.624;2023-09-18T15:25:20;2.72;;;1.23;;
73120;SDS011;61307;49.628;-1.624;2023-09-18T15:27:47;4.00;;;1.38;;
73120;SDS011;61307;49.628;-1.624;2023-09-18T15:30:16;5.95;;;1.33;;
73120;SDS011;61307;49.628;-1.624;2023-09-18T15:32:47;4.80;;;1.50;;
73120;SDS011;61307;49.628;-1.624;2023-09-18T15:35:18;3.88;;;1.10;;
73120;SDS011;61307;49.628;-1.624;2023-09-18T15:37:45;5.60;;;1.40;;
73120;SDS011;61307;49.628;-1.624;2023-09-18T15:40:12;5.18;;;1.60;;
73120;SDS011;61307;49.628;-1.624;2023-09-18T15:42:42;4.72;;;1.35;;
73120;SDS011;61307;49.628;-1.624;2023-09-18T15:45:20;6.03;;;1.58;;
73120;SDS011;61307;49.628;-1.624;2023-09-18T15:47:47;4.80;;;1.17;;
73120;SDS011;61307;49.628;-1.624;2023-09-18T15:50:16;3.20;;;1.17;;
73120;SDS011;61307;49.628;-1.624;2023-09-18T15:52:51;4.35;;;1.13;;
73120;SDS011;61307;49.628;-1.624;2023-09-18T15:55:18;2.70;;;1.30;;
73120;SDS011;61307;49.628;-1.624;2023-09-18T15:57:45;5.65;;;1.45;;
73120;SDS011;61307;49.628;-1.624;2023-09-18T16:00:15;4.93;;;1.33;;
73120;SDS011;61307;49.628;-1.624;2023-09-18T16:02:45;5.20;;;1.20;;
73120;SDS011;61307;49.628;-1.624;2023-09-18T16:05:14;5.30;;;1.30;;
73120;SDS011;61307;49.628;-1.624;2023-09-18T16:07:44;5.32;;;1.50;;
73120;SDS011;61307;49.628;-1.624;2023-09-18T16:10:19;7.18;;;1.67;;
73120;SDS011;61307;49.628;-1.624;2023-09-18T16:12:46;4.10;;;1.15;;
73120;SDS011;61307;49.628;-1.624;2023-09-18T16:15:16;4.20;;;1.20;;
73120;SDS011;61307;49.628;-1.624;2023-09-18T16:17:45;4.28;;;1.20;;
73120;SDS011;61307;49.628;-1.624;2023-09-18T16:20:18;5.97;;;1.02;;
73120;SDS011;61307;49.628;-1.624;2023-09-18T16:22:46;7.05;;;1.50;;
73120;SDS011;61307;49.628;-1.624;2023-09-18T16:25:13;3.53;;;1.27;;
73120;SDS011;61307;49.628;-1.624;2023-09-18T16:27:40;3.90;;;1.10;;
73120;SDS011;61307;49.628;-1.624;2023-09-18T16:30:19;2.60;;;1.25;;
73120;SDS011;61307;49.628;-1.624;2023-09-18T16:32:50;5.45;;;1.35;;
73120;SDS011;61307;49.628;-1.624;2023-09-18T16:35:19;4.50;;;1.30;;
73120;SDS011;61307;49.628;-1.624;2023-09-18T16:37:46;4.25;;;1.17;;
73120;SDS011;61307;49.628;-1.624;2023-09-18T16:40:13;3.13;;;1.00;;
73120;SDS011;61307;49.628;-1.624;2023-09-18T16:42:41;5.22;;;1.45;;
73120;SDS011;61307;49.628;-1.624;2023-09-18T16:45:09;5.28;;;1.50;;
73120;SDS011;61307;49.628;-1.624;2023-09-18T16:47:36;3.05;;;1.40;;
73120;SDS011;61307;49.628;-1.624;2023-09-18T16:50:05;4.00;;;1.33;;
73120;SDS011;61307;49.628;-1.624;2023-09-18T16:52:33;3.28;;;1.10;;
73120;SDS011;61307;49.628;-1.624;2023-09-18T16:55:05;5.40;;;1.58;;
73120;SDS011;61307;49.628;-1.624;2023-09-18T16:57:33;3.88;;;1.50;;
73120;SDS011;61307;49.628;-1.624;2023-09-18T17:00:00;3.83;;;1.30;;
73120;SDS011;61307;49.628;-1.624;2023-09-18T17:02:31;7.72;;;1.73;;
73120;SDS011;61307;49.628;-1.624;2023-09-18T17:04:59;3.72;;;1.30;;
73120;SDS011;61307;49.628;-1.624;2023-09-18T17:07:27;3.72;;;1.42;;
73120;SDS011;61307;49.628;-1.624;2023-09-18T17:09:54;5.30;;;1.23;;
73120;SDS011;61307;49.628;-1.624;2023-09-18T17:12:21;7.55;;;1.77;;
73120;SDS011;61307;49.628;-1.624;2023-09-18T17:14:55;7.43;;;1.83;;
73120;SDS011;61307;49.628;-1.624;2023-09-18T17:17:23;7.40;;;1.73;;
73120;SDS011;61307;49.628;-1.624;2023-09-18T17:19:50;5.30;;;1.42;;
73120;SDS011;61307;49.628;-1.624;2023-09-18T17:22:19;4.13;;;1.23;;
73120;SDS011;61307;49.628;-1.624;2023-09-18T17:24:48;4.82;;;1.50;;
73120;SDS011;61307;49.628;-1.624;2023-09-18T17:27:15;5.45;;;1.30;;
73120;SDS011;61307;49.628;-1.624;2023-09-18T17:29:42;5.85;;;1.40;;
73120;SDS011;61307;49.628;-1.624;2023-09-18T17:32:09;3.00;;;1.30;;
73120;SDS011;61307;49.628;-1.624;2023-09-18T17:34:36;5.55;;;1.40;;
73120;SDS011;61307;49.628;-1.624;2023-09-18T17:37:03;7.65;;;1.70;;
73120;SDS011;61307;49.628;-1.624;2023-09-18T17:39:32;2.95;;;1.48;;
73120;SDS011;61307;49.628;-1.624;2023-09-18T17:42:01;8.60;;;1.83;;
73120;SDS011;61307;49.628;-1.624;2023-09-18T17:44:29;3.45;;;1.20;;
73120;SDS011;61307;49.628;-1.624;2023-09-18T17:46:55;6.43;;;1.80;;
73120;SDS011;61307;49.628;-1.624;2023-09-18T17:49:22;6.97;;;1.50;;
73120;SDS011;61307;49.628;-1.624;2023-09-18T17:51:49;7.28;;;2.20;;
73120;SDS011;61307;49.628;-1.624;2023-09-18T17:54:16;5.80;;;1.42;;
73120;SDS011;61307;49.628;-1.624;2023-09-18T17:56:43;5.15;;;1.38;;
73120;SDS011;61307;49.628;-1.624;2023-09-18T17:59:12;6.32;;;1.60;;
73120;SDS011;61307;49.628;-1.624;2023-09-18T18:01:40;3.63;;;1.30;;
73120;SDS011;61307;49.628;-1.624;2023-09-18T18:04:08;4.40;;;1.77;;
73120;SDS011;61307;49.628;-1.624;2023-09-18T18:06:35;5.43;;;1.88;;
73120;SDS011;61307;49.628;-1.624;2023-09-18T18:09:03;3.85;;;1.58;;
73120;SDS011;61307;49.628;-1.624;2023-09-18T18:11:30;5.25;;;1.58;;
73120;SDS011;61307;49.628;-1.624;2023-09-18T18:13:57;4.50;;;1.70;;
73120;SDS011;61307;49.628;-1.624;2023-09-18T18:16:25;4.15;;;1.80;;
73120;SDS011;61307;49.628;-1.624;2023-09-18T18:18:52;5.95;;;1.48;;
73120;SDS011;61307;49.628;-1.624;2023-09-18T18:21:22;4.70;;;1.60;;
73120;SDS011;61307;49.628;-1.624;2023-09-18T18:23:49;4.03;;;1.40;;
73120;SDS011;61307;49.628;-1.624;2023-09-18T18:26:16;3.67;;;1.60;;
73120;SDS011;61307;49.628;-1.624;2023-09-18T18:28:46;7.72;;;1.60;;
73120;SDS011;61307;49.628;-1.624;2023-09-18T18:31:13;7.15;;;1.88;;
73120;SDS011;61307;49.628;-1.624;2023-09-18T18:33:42;3.88;;;1.35;;
73120;SDS011;61307;49.628;-1.624;2023-09-18T18:36:09;4.38;;;1.33;;
73120;SDS011;61307;49.628;-1.624;2023-09-18T18:38:37;5.28;;;1.55;;
73120;SDS011;61307;49.628;-1.624;2023-09-18T18:41:04;7.22;;;1.42;;
73120;SDS011;61307;49.628;-1.624;2023-09-18T18:43:31;6.43;;;1.83;;
73120;SDS011;61307;49.628;-1.624;2023-09-18T18:45:58;7.07;;;1.60;;
73120;SDS011;61307;49.628;-1.624;2023-09-18T18:48:26;3.70;;;1.40;;
73120;SDS011;61307;49.628;-1.624;2023-09-18T18:51:00;5.47;;;1.70;;
73120;SDS011;61307;49.628;-1.624;2023-09-18T18:53:27;6.35;;;1.75;;
73120;SDS011;61307;49.628;-1.624;2023-09-18T18:55:55;5.65;;;1.40;;